Time;durP1;ratioP1;P1;durP2;ratioP2;P2;SDS_P1;SDS_P2;PMS_P1;PMS_P2;Temp;Humidity;BMP_temperature;BMP_pressure;BME280_temperature;BME280_humidity;BME280_pressure;Samples;Min_cycle;Max_cycle;Signal;HPM_P1;HPM_P2
2023/05/03 00:02:03;;;;;;;5.82;2.20;;;6.00;86.10;;;;;;5005524;28;20061;-72
2023/05/03 00:04:30;;;;;;;8.15;2.30;;;6.00;86.40;;;;;;5005714;28;20026;-72
2023/05/03 00:06:56;;;;;;;5.07;2.42;;;6.00;86.30;;;;;;5009763;28;20033;-71
2023/05/03 00:09:21;;;;;;;7.00;2.55;;;6.00;86.40;;;;;;5005452;28;20045;-71
2023/05/03 00:11:47;;;;;;;7.38;2.50;;;6.00;86.50;;;;;;5006434;28;20029;-71
2023/05/03 00:14:12;;;;;;;5.47;2.13;;;6.00;86.40;;;;;;5009704;28;20044;-71
2023/05/03 00:16:38;;;;;;;5.80;2.35;;;6.00;86.00;;;;;;5001649;28;20092;-72
2023/05/03 00:19:03;;;;;;;4.55;2.40;;;6.00;85.90;;;;;;5023345;28;20044;-71
2023/05/03 00:21:29;;;;;;;6.47;2.35;;;6.00;85.90;;;;;;5017747;28;20034;-72
2023/05/03 00:23:54;;;;;;;4.97;2.22;;;5.90;86.20;;;;;;5002967;28;20042;-72
2023/05/03 00:26:21;;;;;;;9.48;3.45;;;5.90;86.60;;;;;;5004954;28;20112;-71
2023/05/03 00:28:46;;;;;;;6.70;2.53;;;5.80;86.70;;;;;;5006880;28;20022;-71
2023/05/03 00:31:12;;;;;;;3.58;2.13;;;5.80;86.90;;;;;;5006894;28;20334;-73
2023/05/03 00:33:38;;;;;;;4.90;2.40;;;5.70;86.90;;;;;;5007069;28;20026;-73
2023/05/03 00:36:14;;;;;;;7.90;2.42;;;5.60;87.00;;;;;;5004635;28;20464;-72
2023/05/03 00:38:40;;;;;;;10.52;2.78;;;5.60;87.40;;;;;;5002161;28;20355;-71
2023/05/03 00:41:08;;;;;;;6.07;2.60;;;5.60;87.30;;;;;;5018652;28;20308;-75
2023/05/03 00:43:34;;;;;;;7.15;2.72;;;5.50;87.40;;;;;;5009263;28;20102;-72
2023/05/03 00:46:02;;;;;;;6.93;2.60;;;5.30;87.50;;;;;;5005881;28;20766;-71
2023/05/03 00:48:27;;;;;;;12.00;2.60;;;5.20;87.90;;;;;;5008776;28;20385;-74
2023/05/03 00:50:56;;;;;;;10.98;2.80;;;5.10;88.10;;;;;;5001460;28;20346;-72
2023/05/03 00:53:22;;;;;;;11.55;2.47;;;5.10;88.20;;;;;;5005493;28;20029;-72
2023/05/03 00:55:50;;;;;;;6.55;2.50;;;4.90;88.40;;;;;;5006942;28;20057;-71
2023/05/03 00:58:16;;;;;;;5.45;2.67;;;4.80;88.80;;;;;;5015581;28;20034;-71
2023/05/03 01:00:41;;;;;;;7.90;3.03;;;4.70;89.10;;;;;;5004146;28;20485;-71
2023/05/03 01:03:06;;;;;;;7.03;2.80;;;4.60;89.40;;;;;;5006664;28;20030;-72
2023/05/03 01:05:43;;;;;;;7.78;2.75;;;4.40;89.00;;;;;;5004869;28;20458;-71
2023/05/03 01:08:12;;;;;;;7.15;3.25;;;4.30;89.20;;;;;;5005009;28;20034;-71
2023/05/03 01:10:47;;;;;;;6.00;2.97;;;4.20;90.10;;;;;;4999248;28;20459;-71
2023/05/03 01:13:34;;;;;;;4.63;2.88;;;4.10;89.90;;;;;;5003946;28;20026;-73
2023/05/03 01:16:13;;;;;;;7.78;3.15;;;4.00;89.60;;;;;;5003279;28;20106;-71
2023/05/03 01:18:42;;;;;;;6.70;3.25;;;3.80;89.20;;;;;;5004899;28;20039;-75
2023/05/03 01:21:09;;;;;;;7.50;3.05;;;3.70;89.80;;;;;;5001962;28;20103;-71
2023/05/03 01:23:58;;;;;;;6.53;3.05;;;3.60;90.20;;;;;;4997120;28;20030;-70
2023/05/03 01:26:26;;;;;;;8.68;3.08;;;3.50;90.30;;;;;;5005518;28;20022;-72
2023/05/03 01:28:52;;;;;;;11.57;3.53;;;3.40;90.50;;;;;;5004521;28;20034;-71
2023/05/03 01:31:35;;;;;;;10.38;3.40;;;3.30;90.70;;;;;;5003848;28;20098;-71
2023/05/03 01:34:27;;;;;;;8.85;3.13;;;3.20;90.40;;;;;;5016690;28;20048;-72
2023/05/03 01:36:57;;;;;;;9.10;3.20;;;3.10;91.00;;;;;;5007588;28;20346;-71
2023/05/03 01:39:34;;;;;;;8.00;3.17;;;3.10;91.40;;;;;;5006623;28;20022;-73
2023/05/03 01:42:00;;;;;;;6.65;3.70;;;3.00;91.50;;;;;;5002893;28;20026;-72
2023/05/03 01:44:27;;;;;;;8.60;3.53;;;2.90;91.50;;;;;;4993374;28;20030;-72
2023/05/03 01:46:53;;;;;;;11.48;3.70;;;2.80;91.60;;;;;;5006602;28;20088;-72
2023/05/03 01:49:19;;;;;;;9.60;3.17;;;2.80;91.90;;;;;;5019464;28;20120;-71
2023/05/03 01:51:44;;;;;;;6.60;3.40;;;2.70;91.90;;;;;;5004218;28;20028;-72
2023/05/03 01:54:10;;;;;;;8.60;3.50;;;2.70;92.10;;;;;;5008094;28;20105;-72
2023/05/03 01:56:36;;;;;;;7.43;3.45;;;2.60;92.20;;;;;;5004372;28;20554;-72
2023/05/03 01:59:02;;;;;;;9.15;4.25;;;2.60;92.20;;;;;;5007708;28;20580;-72
2023/05/03 02:01:27;;;;;;;7.13;3.67;;;2.50;92.20;;;;;;4998612;28;20125;-72
2023/05/03 02:03:53;;;;;;;8.95;3.88;;;2.40;92.40;;;;;;5009266;28;20488;-71
2023/05/03 02:06:18;;;;;;;7.78;3.47;;;2.40;92.60;;;;;;5006230;28;20030;-75
2023/05/03 02:08:44;;;;;;;11.70;3.53;;;2.40;92.90;;;;;;4992514;28;20037;-71
2023/05/03 02:11:10;;;;;;;9.23;4.05;;;2.40;92.90;;;;;;5000790;28;20061;-72
2023/05/03 02:13:37;;;;;;;8.52;3.80;;;2.30;92.80;;;;;;5008137;28;20034;-72
2023/05/03 02:16:02;;;;;;;11.10;4.65;;;2.20;92.80;;;;;;5009398;28;20605;-73
2023/05/03 02:18:30;;;;;;;12.35;4.00;;;2.30;93.20;;;;;;5003487;28;20056;-71
2023/05/03 02:20:56;;;;;;;7.38;4.15;;;2.20;93.20;;;;;;5000500;28;20028;-72
2023/05/03 02:23:22;;;;;;;7.65;4.00;;;2.10;93.30;;;;;;5000584;28;20033;-71
2023/05/03 02:25:48;;;;;;;11.88;4.80;;;2.10;93.30;;;;;;4999993;28;20459;-71
2023/05/03 02:30:49;;;;;;;11.45;4.72;;;2.10;93.20;;;;;;5004339;23;20116;-76
2023/05/03 02:33:14;;;;;;;9.45;4.57;;;2.10;93.30;;;;;;5002505;28;20478;-75
2023/05/03 02:35:40;;;;;;;9.05;4.50;;;2.10;93.40;;;;;;5010840;28;20025;-76
2023/05/03 02:38:05;;;;;;;12.10;4.72;;;2.10;93.40;;;;;;4998414;28;20042;-75
2023/05/03 02:40:31;;;;;;;12.88;5.03;;;2.10;93.70;;;;;;5006575;28;20029;-76
2023/05/03 02:42:56;;;;;;;13.20;4.78;;;2.10;93.70;;;;;;5007065;28;20125;-75
2023/05/03 02:45:23;;;;;;;10.10;5.05;;;2.20;94.10;;;;;;5009212;28;20028;-75
2023/05/03 02:47:48;;;;;;;12.98;4.90;;;2.20;94.30;;;;;;5011568;28;20025;-75
2023/05/03 02:50:14;;;;;;;10.35;4.13;;;2.10;94.20;;;;;;5009510;28;20040;-76
2023/05/03 02:52:39;;;;;;;8.73;4.22;;;2.10;94.10;;;;;;5009045;28;20048;-75
2023/05/03 02:55:05;;;;;;;14.15;5.32;;;2.10;94.10;;;;;;5011606;28;20481;-75
2023/05/03 02:57:31;;;;;;;10.85;4.80;;;2.30;94.20;;;;;;5004495;28;20034;-75
2023/05/03 02:59:57;;;;;;;9.30;5.35;;;2.40;94.10;;;;;;5004026;28;20030;-75
2023/05/03 03:02:22;;;;;;;9.60;5.40;;;2.50;94.20;;;;;;5003910;28;20033;-75
2023/05/03 03:04:48;;;;;;;14.63;5.43;;;2.50;94.40;;;;;;5003987;28;20026;-74
2023/05/03 03:07:13;;;;;;;9.45;5.15;;;2.60;94.70;;;;;;5009693;28;20038;-76
2023/05/03 03:09:39;;;;;;;12.00;5.55;;;2.70;94.60;;;;;;5005741;28;20041;-74
2023/05/03 03:12:04;;;;;;;9.80;4.95;;;2.80;94.50;;;;;;5005578;28;20026;-75
2023/05/03 03:14:30;;;;;;;12.65;5.65;;;2.80;94.50;;;;;;5010654;28;20030;-75
2023/05/03 03:16:56;;;;;;;11.43;5.22;;;2.90;94.40;;;;;;5003255;28;20038;-75
2023/05/03 03:19:22;;;;;;;17.17;6.05;;;3.00;94.20;;;;;;5004253;28;20482;-75
2023/05/03 03:21:47;;;;;;;11.35;5.65;;;3.00;94.00;;;;;;5008146;28;20057;-75
2023/05/03 03:24:14;;;;;;;10.98;5.93;;;3.10;93.90;;;;;;5009511;28;20034;-75
2023/05/03 03:26:40;;;;;;;11.45;5.57;;;3.10;94.00;;;;;;5003846;28;20413;-75
2023/05/03 03:29:05;;;;;;;15.95;5.85;;;3.20;94.20;;;;;;5001353;28;20125;-75
2023/05/03 03:31:31;;;;;;;10.85;5.93;;;3.30;94.00;;;;;;4985826;28;20030;-75
2023/05/03 03:33:56;;;;;;;11.00;5.45;;;3.30;93.90;;;;;;4988978;28;20404;-75
2023/05/03 03:36:21;;;;;;;8.80;5.05;;;3.30;93.90;;;;;;4989441;28;20022;-74
2023/05/03 03:38:47;;;;;;;12.45;5.88;;;3.40;94.00;;;;;;4988899;28;20041;-74
2023/05/03 03:41:13;;;;;;;11.10;5.43;;;3.40;93.60;;;;;;4984860;28;20525;-75
2023/05/03 03:43:38;;;;;;;10.88;5.38;;;3.40;93.90;;;;;;4990373;28;20092;-76
2023/05/03 03:46:04;;;;;;;14.98;5.90;;;3.40;93.70;;;;;;4989022;28;20034;-75
2023/05/03 03:48:29;;;;;;;13.95;5.63;;;3.50;93.80;;;;;;4989892;28;20235;-75
2023/05/03 03:50:55;;;;;;;15.18;6.03;;;3.50;93.70;;;;;;4985168;28;20027;-75
2023/05/03 03:53:20;;;;;;;12.90;4.93;;;3.50;93.60;;;;;;4988359;28;20042;-75
2023/05/03 03:55:46;;;;;;;15.02;6.10;;;3.60;93.50;;;;;;4987173;28;20037;-75
2023/05/03 03:58:11;;;;;;;13.10;5.18;;;3.60;93.60;;;;;;4993714;28;20018;-75
2023/05/03 04:00:37;;;;;;;15.60;4.53;;;3.60;93.60;;;;;;4983788;28;20026;-75
2023/05/03 04:03:05;;;;;;;10.23;4.78;;;3.70;93.40;;;;;;4989871;28;20367;-75
2023/05/03 04:05:30;;;;;;;12.85;5.38;;;3.80;93.40;;;;;;4992187;28;20157;-75
2023/05/03 04:07:56;;;;;;;13.23;4.80;;;3.80;93.30;;;;;;4992799;28;20109;-75
2023/05/03 04:10:21;;;;;;;13.63;5.90;;;3.80;93.30;;;;;;4987414;28;20490;-75
2023/05/03 04:12:47;;;;;;;10.20;5.03;;;3.80;93.40;;;;;;4991216;28;20042;-75
2023/05/03 04:15:12;;;;;;;9.65;5.20;;;3.80;93.30;;;;;;4992517;28;20423;-75
2023/05/03 04:17:38;;;;;;;12.68;4.72;;;3.80;93.40;;;;;;4991502;28;20038;-76
2023/05/03 04:20:09;;;;;;;11.65;5.85;;;3.90;93.40;;;;;;4990722;28;20411;-75
2023/05/03 04:22:35;;;;;;;10.07;4.55;;;3.90;93.20;;;;;;4992958;28;20088;-75
2023/05/03 04:25:00;;;;;;;11.70;5.18;;;4.00;93.20;;;;;;4994293;28;20031;-75
2023/05/03 04:27:26;;;;;;;15.93;5.07;;;4.10;93.00;;;;;;4989841;28;20041;-76
2023/05/03 04:29:52;;;;;;;12.02;4.88;;;4.20;92.70;;;;;;4990974;28;20054;-73
2023/05/03 04:32:22;;;;;;;16.00;5.78;;;4.30;92.70;;;;;;4992231;28;20113;-73
2023/05/03 04:34:53;;;;;;;14.50;5.10;;;4.30;92.50;;;;;;4992773;28;20474;-72
2023/05/03 04:37:20;;;;;;;9.60;4.90;;;4.30;92.00;;;;;;4991849;28;20506;-72
2023/05/03 04:39:46;;;;;;;8.50;4.80;;;4.40;91.70;;;;;;4991482;28;20301;-73
2023/05/03 04:42:14;;;;;;;11.45;4.97;;;4.40;91.50;;;;;;4989727;28;20470;-73
2023/05/03 04:44:41;;;;;;;13.20;4.85;;;4.40;91.30;;;;;;4990113;28;20494;-74
2023/05/03 04:47:07;;;;;;;8.07;4.68;;;4.50;91.30;;;;;;4983540;28;20109;-72
2023/05/03 04:49:33;;;;;;;8.43;4.40;;;4.50;91.30;;;;;;4990202;28;20097;-74
2023/05/03 04:51:59;;;;;;;9.18;4.30;;;4.60;91.20;;;;;;4988369;28;20050;-73
2023/05/03 04:54:25;;;;;;;8.65;4.57;;;4.80;90.90;;;;;;4988097;28;20061;-73
2023/05/03 04:56:51;;;;;;;8.77;4.38;;;4.90;90.60;;;;;;4987171;28;20038;-73
2023/05/03 04:59:16;;;;;;;11.55;4.35;;;4.80;90.10;;;;;;4986885;28;20018;-74
2023/05/03 05:01:42;;;;;;;7.53;4.63;;;4.90;90.80;;;;;;4974188;28;20485;-75
2023/05/03 05:04:08;;;;;;;14.50;5.40;;;5.00;90.60;;;;;;4987113;28;20030;-74
2023/05/03 05:06:33;;;;;;;7.40;4.50;;;5.10;90.30;;;;;;4993244;28;20444;-72
2023/05/03 05:08:59;;;;;;;11.30;4.70;;;5.10;90.30;;;;;;4991177;28;20128;-72
2023/05/03 05:11:24;;;;;;;11.68;4.63;;;5.20;90.10;;;;;;4989769;28;20426;-72
2023/05/03 05:13:50;;;;;;;7.80;3.70;;;5.40;90.10;;;;;;4987100;28;20038;-73
2023/05/03 05:16:16;;;;;;;12.10;4.53;;;5.50;89.70;;;;;;4991892;28;20375;-73
2023/05/03 05:18:42;;;;;;;10.02;4.25;;;5.60;89.40;;;;;;4988760;28;20061;-75
2023/05/03 05:21:07;;;;;;;11.02;4.43;;;5.70;89.10;;;;;;4990502;28;20143;-74
2023/05/03 05:23:33;;;;;;;9.10;4.97;;;5.80;89.50;;;;;;4987690;28;20475;-73
2023/05/03 05:25:59;;;;;;;10.63;5.20;;;5.90;89.00;;;;;;4991126;28;20045;-73
2023/05/03 05:28:26;;;;;;;16.40;5.50;;;5.90;88.70;;;;;;4990343;28;20469;-74
2023/05/03 05:30:52;;;;;;;8.68;4.07;;;6.10;88.90;;;;;;4987652;28;20774;-74
2023/05/03 05:33:17;;;;;;;8.15;4.32;;;6.10;88.40;;;;;;4987515;28;20084;-76
2023/05/03 05:35:44;;;;;;;10.50;3.63;;;6.10;88.30;;;;;;4983217;28;20042;-74
2023/05/03 05:38:11;;;;;;;11.77;3.80;;;6.20;88.40;;;;;;4986364;28;20057;-73
2023/05/03 05:40:36;;;;;;;9.75;4.15;;;6.30;88.00;;;;;;4985381;28;20479;-72
2023/05/03 05:43:02;;;;;;;9.68;4.30;;;6.40;88.10;;;;;;4989062;28;20086;-73
2023/05/03 05:45:27;;;;;;;10.77;3.75;;;6.40;87.60;;;;;;4988804;28;20467;-71
2023/05/03 05:47:52;;;;;;;11.10;3.83;;;6.50;87.90;;;;;;4989857;28;20054;-72
2023/05/03 05:50:18;;;;;;;12.05;3.95;;;6.70;87.40;;;;;;4966537;28;20041;-73
2023/05/03 05:52:43;;;;;;;10.45;4.38;;;6.70;86.80;;;;;;4984622;28;20039;-73
2023/05/03 05:55:12;;;;;;;10.93;4.35;;;6.80;86.70;;;;;;5004565;28;20026;-72
2023/05/03 05:57:38;;;;;;;11.70;3.70;;;6.90;86.80;;;;;;4989663;28;20472;-72
2023/05/03 06:00:13;;;;;;;8.35;3.80;;;7.10;86.30;;;;;;4992754;28;20044;-75
2023/05/03 06:02:38;;;;;;;11.13;3.05;;;7.10;84.80;;;;;;4986747;28;20058;-72
2023/05/03 06:05:05;;;;;;;5.78;3.17;;;7.00;84.00;;;;;;4990812;28;20119;-72
2023/05/03 06:07:30;;;;;;;10.75;3.67;;;7.20;85.50;;;;;;4991610;28;20370;-72
2023/05/03 06:09:56;;;;;;;8.93;3.72;;;7.20;84.90;;;;;;4972185;28;20046;-72
2023/05/03 06:12:21;;;;;;;10.05;3.60;;;7.50;85.40;;;;;;4990281;28;20347;-72
2023/05/03 06:14:46;;;;;;;12.30;3.35;;;7.50;84.50;;;;;;4992601;28;20507;-72
2023/05/03 06:17:12;;;;;;;7.32;2.97;;;7.50;83.50;;;;;;4991288;28;20109;-72
2023/05/03 06:19:38;;;;;;;12.10;2.85;;;7.70;83.00;;;;;;4988580;28;20030;-72
2023/05/03 06:22:04;;;;;;;8.10;2.60;;;7.50;81.30;;;;;;4991162;28;20411;-72
2023/05/03 06:24:31;;;;;;;13.02;3.10;;;7.70;81.80;;;;;;4992024;28;20022;-72
2023/05/03 06:26:57;;;;;;;5.25;2.65;;;7.90;82.10;;;;;;4986622;28;20033;-72
2023/05/03 06:29:23;;;;;;;8.82;2.83;;;8.00;81.00;;;;;;4984299;28;20034;-71
2023/05/03 06:31:49;;;;;;;7.63;2.42;;;8.10;80.50;;;;;;4982715;28;20322;-72
2023/05/03 06:34:18;;;;;;;8.70;2.65;;;8.20;78.30;;;;;;4970660;28;20041;-72
2023/05/03 06:36:44;;;;;;;5.60;2.53;;;8.20;78.80;;;;;;4982764;28;20030;-72
2023/05/03 06:39:10;;;;;;;6.85;2.20;;;8.40;78.90;;;;;;4981535;28;20080;-71
2023/05/03 06:41:35;;;;;;;4.10;1.90;;;8.60;77.60;;;;;;4969976;28;20435;-74
2023/05/03 06:44:02;;;;;;;5.85;2.40;;;8.60;77.20;;;;;;4988740;28;20068;-73
2023/05/03 06:46:28;;;;;;;10.18;2.63;;;8.70;77.30;;;;;;4986529;28;20022;-73
2023/05/03 06:48:55;;;;;;;5.53;1.83;;;8.80;75.70;;;;;;4985995;28;20447;-71
2023/05/03 06:51:26;;;;;;;9.40;2.45;;;8.90;75.60;;;;;;4995171;28;20030;-72
2023/05/03 06:53:51;;;;;;;;;;;9.30;74.90;;;;;;5001110;28;20105;-71
2023/05/03 06:56:17;;;;;;;5.82;2.58;;;9.50;74.80;;;;;;4989427;28;20317;-72
2023/05/03 06:58:42;;;;;;;3.33;1.90;;;9.60;74.90;;;;;;4987881;28;20030;-73
2023/05/03 07:01:08;;;;;;;13.60;2.08;;;9.80;73.40;;;;;;4990288;28;20034;-73
2023/05/03 07:03:36;;;;;;;8.98;2.28;;;9.80;72.10;;;;;;4989492;28;20070;-76
2023/05/03 07:06:01;;;;;;;7.03;2.47;;;9.50;73.40;;;;;;4970153;28;20046;-74
2023/05/03 07:08:27;;;;;;;9.73;2.25;;;9.40;74.00;;;;;;4990326;28;20066;-73
2023/05/03 07:10:52;;;;;;;8.57;2.50;;;9.60;74.50;;;;;;4991260;28;20062;-73
2023/05/03 07:13:18;;;;;;;11.90;2.50;;;9.80;73.30;;;;;;4990394;28;20472;-73
2023/05/03 07:15:44;;;;;;;9.82;2.88;;;9.80;72.60;;;;;;4989376;28;20105;-75
2023/05/03 07:18:10;;;;;;;7.13;2.45;;;10.00;72.60;;;;;;4987652;28;20022;-74
2023/05/03 07:20:35;;;;;;;6.80;2.45;;;10.20;72.00;;;;;;4987467;28;20089;-74
2023/05/03 07:23:01;;;;;;;7.57;2.10;;;10.20;71.80;;;;;;4990600;28;20434;-74
2023/05/03 07:25:26;;;;;;;6.05;1.77;;;10.10;70.90;;;;;;4990445;28;20114;-73
2023/05/03 07:27:52;;;;;;;4.88;1.83;;;10.00;70.90;;;;;;4988966;28;20451;-74
2023/05/03 07:30:18;;;;;;;9.85;2.30;;;9.80;71.30;;;;;;4954674;28;1013737;-74
2023/05/03 07:32:43;;;;;;;7.75;1.90;;;9.80;71.20;;;;;;4971012;28;20134;-74
2023/05/03 07:35:09;;;;;;;8.13;2.08;;;10.00;71.70;;;;;;4990149;28;20562;-74
2023/05/03 07:37:37;;;;;;;6.10;1.85;;;10.00;70.70;;;;;;4991862;28;20499;-73
2023/05/03 07:40:05;;;;;;;7.85;2.10;;;10.10;67.60;;;;;;4996263;28;20466;-74
2023/05/03 07:42:31;;;;;;;5.20;1.85;;;10.30;69.30;;;;;;4992741;28;20498;-75
2023/05/03 07:44:56;;;;;;;4.72;1.50;;;10.40;68.20;;;;;;5001748;28;20026;-74
2023/05/03 07:47:22;;;;;;;3.95;1.42;;;10.30;68.30;;;;;;4995022;28;20126;-74
2023/05/03 07:49:49;;;;;;;5.50;1.52;;;10.40;67.80;;;;;;4993002;28;20034;-74
2023/05/03 07:52:15;;;;;;;8.45;1.30;;;10.70;66.70;;;;;;4993904;28;20022;-74
2023/05/03 07:54:42;;;;;;;6.80;1.35;;;11.00;65.90;;;;;;4995603;28;20037;-74
2023/05/03 07:57:07;;;;;;;4.50;1.10;;;10.90;65.40;;;;;;4992254;28;20026;-74
2023/05/03 07:59:33;;;;;;;5.82;1.38;;;11.00;64.90;;;;;;5006309;28;20386;-74
2023/05/03 08:01:58;;;;;;;6.53;1.17;;;10.80;62.10;;;;;;4994135;28;20041;-74
2023/05/03 08:04:24;;;;;;;5.50;0.95;;;10.80;63.90;;;;;;4993414;28;20053;-74
2023/05/03 08:06:49;;;;;;;4.95;1.45;;;10.80;63.90;;;;;;4993254;28;20459;-74
2023/05/03 08:09:15;;;;;;;4.38;1.30;;;10.80;65.80;;;;;;4994037;28;20034;-76
2023/05/03 08:11:40;;;;;;;4.10;1.40;;;10.70;64.60;;;;;;4992636;28;20109;-74
2023/05/03 08:14:06;;;;;;;5.00;1.33;;;10.30;62.20;;;;;;4993433;28;20041;-76
2023/05/03 08:16:31;;;;;;;4.90;1.13;;;10.20;63.30;;;;;;4993815;28;20037;-74
2023/05/03 08:18:57;;;;;;;3.17;0.93;;;10.40;64.50;;;;;;5000639;28;20112;-74
2023/05/03 08:21:23;;;;;;;3.78;1.10;;;10.40;61.30;;;;;;4993782;28;20030;-74
2023/05/03 08:23:49;;;;;;;1.98;1.10;;;10.30;61.50;;;;;;4993070;28;20030;-74
2023/05/03 08:26:15;;;;;;;4.50;1.50;;;10.60;60.70;;;;;;4999755;28;20555;-74
2023/05/03 08:28:41;;;;;;;3.85;1.20;;;10.70;61.40;;;;;;5004767;28;20036;-76
2023/05/03 08:31:06;;;;;;;5.03;1.48;;;10.50;60.70;;;;;;4998854;28;20057;-74
2023/05/03 08:33:32;;;;;;;7.45;1.77;;;10.60;62.30;;;;;;5001402;28;20156;-74
2023/05/03 08:35:57;;;;;;;5.85;1.25;;;10.90;61.80;;;;;;5000252;28;20341;-74
2023/05/03 08:38:23;;;;;;;3.60;1.10;;;11.10;63.60;;;;;;4994401;28;20451;-74
2023/05/03 08:40:52;;;;;;;4.90;1.25;;;11.00;62.20;;;;;;4991760;28;20030;-74
2023/05/03 08:43:20;;;;;;;4.90;1.40;;;10.90;64.20;;;;;;4992358;28;20088;-75
2023/05/03 08:45:46;;;;;;;3.63;1.45;;;10.90;63.20;;;;;;4993598;28;20110;-75
2023/05/03 08:48:13;;;;;;;5.63;1.50;;;11.20;64.30;;;;;;4993264;28;20535;-74
2023/05/03 08:50:41;;;;;;;5.00;1.30;;;11.40;64.00;;;;;;4987573;28;20134;-75
2023/05/03 08:53:08;;;;;;;5.13;1.30;;;11.30;63.40;;;;;;4994886;28;20026;-74
2023/05/03 08:55:34;;;;;;;5.95;1.30;;;11.30;60.70;;;;;;4989268;28;20027;-76
2023/05/03 08:57:59;;;;;;;4.82;1.20;;;11.40;61.40;;;;;;4991020;28;20541;-73
2023/05/03 09:00:28;;;;;;;3.88;1.13;;;11.20;59.50;;;;;;4993670;28;20061;-74
2023/05/03 09:02:54;;;;;;;3.40;1.15;;;11.20;59.90;;;;;;4992459;28;20122;-75
2023/05/03 09:05:20;;;;;;;2.40;1.08;;;11.30;58.10;;;;;;4991455;28;20117;-74
2023/05/03 09:08:12;;;;;;;3.08;1.30;;;11.60;58.10;;;;;;4992602;28;20517;-75
2023/05/03 09:10:39;;;;;;;3.55;1.20;;;11.50;59.60;;;;;;4990633;28;20026;-75
2023/05/03 09:13:06;;;;;;;5.47;1.23;;;11.40;58.70;;;;;;4986868;28;20032;-75
2023/05/03 09:15:32;;;;;;;4.75;1.30;;;11.40;57.70;;;;;;4988304;28;20065;-75
2023/05/03 09:18:17;;;;;;;4.32;1.42;;;11.50;59.00;;;;;;4993505;28;20018;-75
2023/05/03 09:20:50;;;;;;;9.23;1.70;;;11.10;59.90;;;;;;4993590;28;20101;-75
2023/05/03 09:23:17;;;;;;;5.82;1.20;;;11.10;61.40;;;;;;4993432;28;20393;-75
2023/05/03 09:25:45;;;;;;;4.20;1.60;;;11.10;61.00;;;;;;4994730;28;20089;-75
2023/05/03 09:28:12;;;;;;;5.03;1.60;;;11.30;60.10;;;;;;4987248;28;20050;-75
2023/05/03 09:30:38;;;;;;;5.05;1.45;;;11.00;60.40;;;;;;4991019;28;20475;-75
2023/05/03 09:33:04;;;;;;;4.50;1.55;;;11.40;61.80;;;;;;4993983;28;20077;-75
2023/05/03 09:35:31;;;;;;;5.03;1.85;;;11.70;62.20;;;;;;4990205;28;20034;-75
2023/05/03 09:37:57;;;;;;;4.68;1.25;;;12.00;60.30;;;;;;4971616;28;20027;-75
2023/05/03 09:40:22;;;;;;;4.85;1.42;;;12.10;59.20;;;;;;5001432;28;20034;-75
2023/05/03 09:43:07;;;;;;;5.68;1.27;;;12.10;59.80;;;;;;4989533;28;20481;-75
2023/05/03 09:45:34;;;;;;;3.42;1.35;;;12.10;59.10;;;;;;4980872;28;20018;-75
2023/05/03 09:48:01;;;;;;;3.88;1.55;;;12.20;58.70;;;;;;4994460;28;20065;-75
2023/05/03 09:50:27;;;;;;;4.68;1.50;;;12.00;57.80;;;;;;4990543;28;20022;-75
2023/05/03 09:52:55;;;;;;;5.85;1.67;;;12.10;59.70;;;;;;4992849;28;20459;-75
2023/05/03 09:55:21;;;;;;;5.32;1.48;;;12.00;60.70;;;;;;4997318;28;20093;-75
2023/05/03 09:57:47;;;;;;;6.18;1.50;;;12.10;59.30;;;;;;4991361;28;20034;-75
2023/05/03 10:00:15;;;;;;;5.22;1.45;;;12.00;59.00;;;;;;4999451;28;20027;-75
2023/05/03 10:02:41;;;;;;;5.78;1.58;;;11.80;58.10;;;;;;4992099;28;20038;-75
2023/05/03 10:05:10;;;;;;;4.85;1.30;;;11.60;58.30;;;;;;4988239;28;20077;-75
2023/05/03 10:07:39;;;;;;;5.03;1.30;;;11.70;57.90;;;;;;4983039;28;20026;-75
2023/05/03 10:10:06;;;;;;;2.30;1.30;;;11.50;59.20;;;;;;4993135;28;20022;-75
2023/05/03 10:12:34;;;;;;;3.25;1.35;;;11.50;58.60;;;;;;4984796;28;20076;-75
2023/05/03 10:15:05;;;;;;;4.00;1.10;;;11.50;57.90;;;;;;4992557;28;20038;-75
2023/05/03 10:17:34;;;;;;;4.07;1.30;;;11.50;57.70;;;;;;4992211;28;20355;-72
2023/05/03 10:20:11;;;;;;;2.80;1.33;;;11.70;58.00;;;;;;4990840;28;20030;-73
2023/05/03 10:23:03;;;;;;;2.65;1.20;;;11.30;56.70;;;;;;4991303;28;20030;-73
2023/05/03 10:25:28;;;;;;;3.28;1.30;;;11.10;56.90;;;;;;4983462;28;20059;-73
2023/05/03 10:28:07;;;;;;;4.35;1.40;;;11.10;57.60;;;;;;4991385;28;20034;-73
2023/05/03 10:30:38;;;;;;;6.85;1.50;;;11.30;57.20;;;;;;4984148;28;20494;-72
2023/05/03 10:33:13;;;;;;;4.10;1.60;;;11.50;57.20;;;;;;4979470;28;20448;-72
2023/05/03 10:35:41;;;;;;;3.58;1.13;;;11.80;57.30;;;;;;4999439;28;20059;-73
2023/05/03 10:38:18;;;;;;;4.45;1.20;;;11.60;57.40;;;;;;4990779;28;20038;-72
2023/05/03 10:40:44;;;;;;;2.72;1.10;;;11.70;56.50;;;;;;4988745;28;20065;-73
2023/05/03 10:43:35;;;;;;;4.25;1.27;;;11.80;56.80;;;;;;4988285;28;20106;-73
2023/05/03 10:46:02;;;;;;;4.32;1.20;;;12.40;57.40;;;;;;4991322;28;20037;-73
2023/05/03 10:48:28;;;;;;;2.67;1.10;;;12.80;54.20;;;;;;5000182;28;20379;-72
2023/05/03 10:50:55;;;;;;;2.88;1.02;;;12.90;53.40;;;;;;4993955;28;20425;-73
2023/05/03 10:53:36;;;;;;;5.07;1.13;;;12.50;52.80;;;;;;4996798;28;20018;-73
2023/05/03 10:56:07;;;;;;;4.68;1.42;;;12.70;52.70;;;;;;4996994;28;20026;-73
2023/05/03 10:58:36;;;;;;;4.60;0.90;;;12.60;55.20;;;;;;4999924;28;20077;-73
2023/05/03 11:01:03;;;;;;;3.15;1.20;;;13.60;52.50;;;;;;4989508;28;20030;-73
2023/05/03 11:03:39;;;;;;;3.95;1.38;;;14.30;51.30;;;;;;4991173;28;20053;-73
2023/05/03 11:06:05;;;;;;;4.72;1.25;;;14.60;48.90;;;;;;4994528;28;20022;-73
2023/05/03 11:08:36;;;;;;;3.50;1.08;;;14.40;49.20;;;;;;4996493;28;20168;-73
2023/05/03 11:11:02;;;;;;;;;;;13.90;49.90;;;;;;4978925;28;20030;-73
2023/05/03 11:13:28;;;;;;;3.08;1.17;;;14.30;50.10;;;;;;5003227;28;19924;-73
2023/05/03 11:15:55;;;;;;;7.20;1.38;;;13.70;52.10;;;;;;4991391;28;20026;-73
2023/05/03 11:18:21;;;;;;;5.25;1.40;;;13.50;49.20;;;;;;4990767;28;20030;-73
2023/05/03 11:20:48;;;;;;;4.93;1.33;;;14.00;51.20;;;;;;4989772;28;20444;-73
2023/05/03 11:23:13;;;;;;;4.22;1.15;;;13.80;50.70;;;;;;4990853;28;20049;-73
2023/05/03 11:25:39;;;;;;;3.55;1.27;;;13.40;52.10;;;;;;4989379;28;20027;-73
2023/05/03 11:28:05;;;;;;;6.32;1.40;;;13.50;50.50;;;;;;4981131;28;20177;-73
2023/05/03 11:30:32;;;;;;;5.63;1.35;;;13.90;51.00;;;;;;4991750;28;20096;-73
2023/05/03 11:32:58;;;;;;;3.95;1.20;;;13.80;51.80;;;;;;4990593;28;20022;-73
2023/05/03 11:35:25;;;;;;;9.32;1.38;;;13.50;50.70;;;;;;4989321;28;20344;-73
2023/05/03 11:37:51;;;;;;;3.03;1.10;;;13.20;52.00;;;;;;4985216;28;20053;-73
2023/05/03 11:40:17;;;;;;;5.93;1.10;;;12.80;54.30;;;;;;4971480;28;20034;-73
2023/05/03 11:42:57;;;;;;;4.22;1.23;;;12.90;52.40;;;;;;4998511;28;20088;-73
2023/05/03 11:45:29;;;;;;;1.90;1.00;;;13.10;54.10;;;;;;4990893;28;20014;-73
2023/05/03 11:47:56;;;;;;;2.03;1.02;;;14.00;48.60;;;;;;4991103;28;20022;-73
2023/05/03 11:50:44;;;;;;;4.65;1.23;;;14.20;48.30;;;;;;4988652;28;20105;-74
2023/05/03 11:53:11;;;;;;;6.55;1.15;;;14.60;49.00;;;;;;4985287;28;20054;-74
2023/05/03 11:55:39;;;;;;;5.13;1.00;;;15.00;48.20;;;;;;4989278;28;20399;-74
2023/05/03 11:58:08;;;;;;;3.05;1.27;;;15.70;45.30;;;;;;4987693;28;20022;-74
2023/05/03 12:00:35;;;;;;;4.18;1.10;;;16.00;46.90;;;;;;4987629;28;20045;-73
2023/05/03 12:03:01;;;;;;;5.10;1.13;;;16.00;45.30;;;;;;4981727;28;20045;-69
2023/05/03 12:05:26;;;;;;;3.90;1.30;;;15.60;46.20;;;;;;4991190;28;20113;-74
2023/05/03 12:07:52;;;;;;;3.83;1.13;;;16.10;44.50;;;;;;4989842;28;20034;-74
2023/05/03 12:10:18;;;;;;;5.28;1.20;;;16.60;45.50;;;;;;4989237;28;20018;-74
2023/05/03 12:12:58;;;;;;;2.85;1.15;;;16.90;44.80;;;;;;4987944;28;20034;-77
2023/05/03 12:15:29;;;;;;;6.97;1.42;;;16.80;42.30;;;;;;4982658;28;20033;-74
2023/05/03 12:17:56;;;;;;;4.13;1.13;;;17.40;45.10;;;;;;4988471;28;20494;-74
2023/05/03 12:20:22;;;;;;;3.13;1.30;;;17.40;42.30;;;;;;4987576;28;20109;-74
2023/05/03 12:22:53;;;;;;;7.32;1.20;;;17.60;43.90;;;;;;4991270;28;20045;-74
2023/05/03 12:25:19;;;;;;;4.72;1.38;;;16.70;42.80;;;;;;4988377;28;20345;-73
2023/05/03 12:27:45;;;;;;;8.27;1.83;;;16.20;46.00;;;;;;4991462;28;20033;-73
2023/05/03 12:30:11;;;;;;;4.00;1.20;;;14.80;46.80;;;;;;4988047;28;20216;-73
2023/05/03 12:32:37;;;;;;;3.55;1.55;;;14.10;48.60;;;;;;4993408;28;20030;-73
2023/05/03 12:35:04;;;;;;;2.85;1.20;;;13.70;49.10;;;;;;4989273;28;20034;-73
2023/05/03 12:37:30;;;;;;;4.28;1.40;;;14.00;49.20;;;;;;4983075;28;20033;-73
2023/05/03 12:39:56;;;;;;;4.82;1.30;;;15.30;46.80;;;;;;4994330;28;20023;-74
2023/05/03 12:42:21;;;;;;;4.10;1.38;;;15.40;45.50;;;;;;4992691;28;20081;-73
2023/05/03 12:44:47;;;;;;;4.50;1.42;;;16.40;44.50;;;;;;4992784;28;20455;-73
2023/05/03 12:47:12;;;;;;;4.18;1.30;;;16.70;44.20;;;;;;4987044;28;20097;-74
2023/05/03 12:49:38;;;;;;;2.20;1.00;;;17.00;42.50;;;;;;4993306;28;20049;-74
2023/05/03 12:52:03;;;;;;;6.28;1.33;;;16.60;43.10;;;;;;4988881;28;20751;-74
2023/05/03 12:54:29;;;;;;;5.38;1.25;;;17.00;42.30;;;;;;4984082;28;20030;-74